Terminal Aerodrome Forecast
Issued by NWS

Home | Current Version | Previous Version | Text Only | Print | Product List | Glossary On
Versions: 1 2 3 4 5 6 7 8 9 10 11 12 13 14 15 16 17 18 19 20 21 22 23 24 25 26 27 28 29
000
FTUS45 KSLC 032059 AAA
TAFLGU
TAF AMD
KLGU 032059Z 0321/0418 35006KT P6SM -RA SCT010 OVC040
      TEMPO 0322/0402 4SM RA BR BKN008 OVC020
     FM040700 VRB05KT P6SM SCT030 OVC050=

USA.gov is the U.S. government's official web portal to all federal, state and local government web resources and services.